createdAt,value
2022-09-28T00:02:11.795Z,6.75
2022-09-28T00:05:03.368Z,9.25
2022-09-28T00:07:54.565Z,8.32
2022-09-28T00:10:56.116Z,9.07
2022-09-28T00:13:50.916Z,9.68
2022-09-28T00:16:44.670Z,12.88
2022-09-28T00:19:35.871Z,7.32
2022-09-28T00:22:27.138Z,6.95
2022-09-28T00:25:21.939Z,7.38
2022-09-28T00:28:14.322Z,11.02
2022-09-28T00:31:05.938Z,9.25
2022-09-28T00:33:57.688Z,7.47
2022-09-28T00:36:49.616Z,9.00
2022-09-28T00:39:42.179Z,7.90
2022-09-28T00:42:33.489Z,7.28
2022-09-28T00:45:27.745Z,11.07
2022-09-28T00:48:19.574Z,11.10
2022-09-28T00:51:14.022Z,9.15
2022-09-28T00:54:08.717Z,9.30
2022-09-28T00:57:02.872Z,11.30
2022-09-28T00:59:54.469Z,12.82
2022-09-28T01:02:49.118Z,8.88
2022-09-28T01:05:41.750Z,11.95
2022-09-28T01:08:35.206Z,9.07
2022-09-28T01:11:27.997Z,9.15
2022-09-28T01:14:20.703Z,8.23
2022-09-28T01:17:15.750Z,10.30
2022-09-28T01:20:28.606Z,6.97
2022-09-28T01:23:55.385Z,10.60
2022-09-28T01:26:57.541Z,6.28
2022-09-28T01:29:55.977Z,10.70
2022-09-28T01:32:54.726Z,7.10
2022-09-28T01:35:52.636Z,8.65
2022-09-28T01:38:48.156Z,10.30
2022-09-28T01:41:42.682Z,8.80
2022-09-28T01:44:41.378Z,8.38
2022-09-28T01:47:36.374Z,14.23
2022-09-28T01:50:31.857Z,7.45
2022-09-28T01:53:29.778Z,8.10
2022-09-28T01:56:26.971Z,10.80
2022-09-28T01:59:20.555Z,9.27
2022-09-28T02:02:18.643Z,9.43
2022-09-28T02:05:15.545Z,6.60
2022-09-28T02:08:12.003Z,7.18
2022-09-28T02:11:10.305Z,9.55
2022-09-28T02:14:05.632Z,11.13
2022-09-28T02:16:58.553Z,9.05
2022-09-28T02:19:51.370Z,9.98
2022-09-28T02:22:46.785Z,10.77
2022-09-28T02:25:44.988Z,9.48
2022-09-28T02:28:36.189Z,10.88
2022-09-28T02:31:28.737Z,10.00
2022-09-28T02:34:20.297Z,7.20
2022-09-28T02:37:13.449Z,10.60
2022-09-28T02:40:10.610Z,9.80
2022-09-28T02:43:10.280Z,9.90
2022-09-28T02:46:09.780Z,10.57
2022-09-28T02:49:21.684Z,10.27
2022-09-28T02:52:32.492Z,11.88
2022-09-28T02:55:36.218Z,13.98
2022-09-28T02:58:40.248Z,11.90
2022-09-28T03:01:38.413Z,11.55
2022-09-28T03:04:38.618Z,11.18
2022-09-28T03:07:36.466Z,11.90
2022-09-28T03:10:38.253Z,11.98
2022-09-28T03:13:30.835Z,9.43
2022-09-28T03:16:22.228Z,9.50
2022-09-28T03:19:14.094Z,10.55
2022-09-28T03:22:05.585Z,10.18
2022-09-28T03:24:58.199Z,14.95
2022-09-28T03:27:49.393Z,9.68
2022-09-28T03:30:41.657Z,8.85
2022-09-28T03:33:33.131Z,11.27
2022-09-28T03:36:24.607Z,11.85
2022-09-28T03:39:15.730Z,11.52
2022-09-28T03:42:08.562Z,14.70
2022-09-28T03:44:59.634Z,17.00
2022-09-28T03:47:51.087Z,14.48
2022-09-28T03:50:42.566Z,16.83
2022-09-28T03:53:34.749Z,15.15
2022-09-28T03:56:25.964Z,20.48
2022-09-28T03:59:19.044Z,18.77
2022-09-28T04:02:10.722Z,19.35
2022-09-28T04:05:02.085Z,26.90
2022-09-28T04:07:57.639Z,25.38
2022-09-28T04:10:49.008Z,29.40
2022-09-28T04:13:40.650Z,28.55
2022-09-28T04:16:33.468Z,30.17
2022-09-28T04:19:25.237Z,32.83
2022-09-28T04:22:16.351Z,42.78
2022-09-28T04:25:08.022Z,39.58
2022-09-28T04:28:16.824Z,35.03
2022-09-28T04:31:11.162Z,38.22
2022-09-28T04:34:03.751Z,38.10
2022-09-28T04:36:55.141Z,40.20
2022-09-28T04:39:48.540Z,47.35
2022-09-28T04:42:40.299Z,46.58
2022-09-28T04:45:32.081Z,51.17
2022-09-28T04:48:23.950Z,52.97
2022-09-28T04:51:16.919Z,50.63
2022-09-28T04:54:08.454Z,45.78
2022-09-28T04:57:00.288Z,52.90
2022-09-28T04:59:51.807Z,42.10
2022-09-28T05:02:43.455Z,47.88
2022-09-28T05:05:34.862Z,51.05
2022-09-28T05:08:28.196Z,42.15
2022-09-28T05:11:21.327Z,42.35
2022-09-28T05:14:13.121Z,47.03
2022-09-28T05:17:04.470Z,45.38
2022-09-28T05:19:56.005Z,42.00
2022-09-28T05:22:47.699Z,48.35
2022-09-28T05:25:41.064Z,44.13
2022-09-28T05:28:34.218Z,42.80
2022-09-28T05:31:27.164Z,46.38
2022-09-28T05:34:18.584Z,45.97
2022-09-28T05:37:10.059Z,35.67
2022-09-28T05:40:01.609Z,39.38
2022-09-28T05:42:54.566Z,39.15
2022-09-28T05:45:45.948Z,35.33
2022-09-28T05:48:37.623Z,34.67
2022-09-28T05:51:28.999Z,38.80
2022-09-28T05:54:20.639Z,39.30
2022-09-28T05:57:12.015Z,39.95
2022-09-28T06:00:06.018Z,44.40
2022-09-28T06:02:58.701Z,41.20
2022-09-28T06:05:50.395Z,45.13
2022-09-28T06:08:43.654Z,47.67
2022-09-28T06:11:34.882Z,39.35
2022-09-28T06:14:26.847Z,40.67
2022-09-28T06:17:19.486Z,46.85
2022-09-28T06:20:12.098Z,45.63
2022-09-28T06:23:16.175Z,42.22
2022-09-28T06:26:08.024Z,44.88
2022-09-28T06:29:00.455Z,48.28
2022-09-28T06:31:54.324Z,46.25
2022-09-28T06:34:47.183Z,48.28
2022-09-28T06:37:38.478Z,47.45
2022-09-28T06:40:30.176Z,40.40
2022-09-28T06:43:21.598Z,49.53
2022-09-28T06:46:14.067Z,37.90
2022-09-28T06:49:06.229Z,45.50
2022-09-28T06:51:59.085Z,44.72
2022-09-28T06:54:50.583Z,45.55
2022-09-28T06:57:41.995Z,46.85
2022-09-28T07:00:36.215Z,49.63
2022-09-28T07:03:28.142Z,44.13
2022-09-28T07:06:20.611Z,41.95
2022-09-28T07:09:30.293Z,41.42
2022-09-28T07:12:24.544Z,40.33
2022-09-28T07:15:15.786Z,39.85
2022-09-28T07:18:08.738Z,44.35
2022-09-28T07:21:02.760Z,34.17
2022-09-28T07:23:54.502Z,37.97
2022-09-28T07:26:47.186Z,40.20
2022-09-28T07:29:38.598Z,47.60
2022-09-28T07:35:22.942Z,53.90
2022-09-28T07:38:14.150Z,44.70
2022-09-28T07:41:17.077Z,52.55
2022-09-28T07:44:09.539Z,50.17
2022-09-28T07:47:02.535Z,52.97
2022-09-28T07:49:56.363Z,45.95
2022-09-28T07:52:47.903Z,41.85
2022-09-28T07:55:39.414Z,47.20
2022-09-28T07:58:32.790Z,56.38
2022-09-28T08:01:25.966Z,51.03
2022-09-28T08:04:17.174Z,49.30
2022-09-28T08:07:10.692Z,49.40
2022-09-28T08:10:02.146Z,58.75
2022-09-28T08:12:59.144Z,55.95
2022-09-28T08:15:54.139Z,52.25
2022-09-28T08:18:49.503Z,61.47
2022-09-28T08:21:45.862Z,60.55
2022-09-28T08:24:38.761Z,59.63
2022-09-28T08:27:30.321Z,56.13
2022-09-28T08:30:21.821Z,58.20
2022-09-28T08:33:14.088Z,49.67
2022-09-28T08:36:07.216Z,50.50
2022-09-28T08:38:58.513Z,41.97
2022-09-28T08:41:55.683Z,47.55
2022-09-28T08:44:51.607Z,47.65
2022-09-28T08:48:09.704Z,48.67
2022-09-28T08:51:06.359Z,43.80
2022-09-28T08:54:08.061Z,41.00
2022-09-28T08:57:06.325Z,41.33
2022-09-28T08:59:59.896Z,45.35
2022-09-28T09:02:51.077Z,45.00
2022-09-28T09:05:52.902Z,47.30
2022-09-28T09:08:57.303Z,50.63
2022-09-28T09:12:04.081Z,44.35
2022-09-28T09:15:28.385Z,45.38
2022-09-28T09:18:28.848Z,50.70
2022-09-28T09:21:34.835Z,43.28
2022-09-28T09:24:28.195Z,43.65
2022-09-28T09:27:37.941Z,45.97
2022-09-28T09:30:39.569Z,44.80
2022-09-28T09:33:46.256Z,42.22
2022-09-28T09:36:51.990Z,41.70
2022-09-28T09:39:58.886Z,35.35
2022-09-28T09:43:05.895Z,36.70
2022-09-28T09:46:12.682Z,36.47
2022-09-28T09:49:09.733Z,38.75
2022-09-28T09:52:08.074Z,40.30
2022-09-28T09:55:03.528Z,41.90
2022-09-28T09:58:04.772Z,33.28
2022-09-28T10:01:05.490Z,35.70
2022-09-28T10:03:58.968Z,40.70
2022-09-28T10:06:53.880Z,39.38
2022-09-28T10:09:47.362Z,39.08
2022-09-28T10:12:39.175Z,33.75
2022-09-28T10:15:34.167Z,36.85
2022-09-28T10:18:25.635Z,33.97
2022-09-28T10:21:19.356Z,33.97
2022-09-28T10:24:18.411Z,31.17
2022-09-28T10:27:15.244Z,31.38
2022-09-28T10:30:17.137Z,34.55
2022-09-28T10:33:30.103Z,30.30
2022-09-28T10:36:21.521Z,34.40
2022-09-28T10:39:27.030Z,26.17
2022-09-28T10:42:24.599Z,20.48
2022-09-28T10:45:22.211Z,20.90
2022-09-28T10:48:21.549Z,21.40
2022-09-28T10:54:04.315Z,22.35
2022-09-28T10:56:57.676Z,26.58
2022-09-28T10:59:49.180Z,23.38
2022-09-28T11:02:41.983Z,21.70
2022-09-28T11:05:35.278Z,21.63
2022-09-28T11:08:30.324Z,20.50
2022-09-28T11:11:21.675Z,24.48
2022-09-28T11:14:27.124Z,25.50
2022-09-28T11:17:26.562Z,23.77
2022-09-28T11:20:31.439Z,25.13
2022-09-28T11:23:31.067Z,25.35
2022-09-28T11:26:22.890Z,22.55
2022-09-28T11:29:23.332Z,22.95
2022-09-28T11:32:16.109Z,19.98
2022-09-28T11:35:08.265Z,26.00
2022-09-28T11:38:18.753Z,19.20
2022-09-28T11:41:25.686Z,19.15
2022-09-28T11:44:32.541Z,16.35
2022-09-28T11:47:48.165Z,16.63
2022-09-28T11:50:48.580Z,11.40
2022-09-28T11:53:43.992Z,11.43
2022-09-28T11:56:40.734Z,9.55
2022-09-28T11:59:35.606Z,6.07
2022-09-28T12:02:34.632Z,7.47
2022-09-28T12:05:30.017Z,6.30
2022-09-28T12:08:27.318Z,8.18
2022-09-28T12:11:22.945Z,7.15
2022-09-28T12:14:21.654Z,5.47
2022-09-28T12:17:22.368Z,6.20
2022-09-28T12:20:20.687Z,11.20
2022-09-28T12:23:16.700Z,9.02
2022-09-28T12:26:24.322Z,7.00
2022-09-28T12:29:20.475Z,9.93
2022-09-28T12:32:25.070Z,6.53
2022-09-28T12:35:25.352Z,6.35
2022-09-28T12:38:34.206Z,7.82
2022-09-28T12:44:42.592Z,3.92
2022-09-28T12:48:03.173Z,9.00
2022-09-28T12:51:05.463Z,5.53
2022-09-28T12:54:05.265Z,4.60
2022-09-28T12:57:07.735Z,5.70
2022-09-28T13:00:05.393Z,3.75
2022-09-28T13:03:13.817Z,7.15
2022-09-28T13:06:25.822Z,3.83
2022-09-28T13:09:21.728Z,5.28
2022-09-28T13:12:26.394Z,7.55
2022-09-28T13:15:37.070Z,6.50
2022-09-28T13:18:34.761Z,6.40
2022-09-28T13:21:34.700Z,5.43
2022-09-28T13:24:33.598Z,3.60
2022-09-28T13:27:32.351Z,4.45
2022-09-28T13:30:25.983Z,2.80
2022-09-28T13:33:25.877Z,4.68
2022-09-28T13:36:38.119Z,9.32
2022-09-28T13:39:39.118Z,5.15
2022-09-28T13:43:00.031Z,4.28
2022-09-28T13:45:56.718Z,4.15
2022-09-28T13:49:00.681Z,6.60
2022-09-28T13:52:05.415Z,4.95
2022-09-28T13:55:13.474Z,8.95
2022-09-28T13:58:15.835Z,4.13
2022-09-28T14:01:12.567Z,4.85
2022-09-28T14:04:17.580Z,3.53
2022-09-28T14:07:16.494Z,5.10
2022-09-28T14:10:21.873Z,2.65
2022-09-28T14:13:13.318Z,2.85
2022-09-28T14:16:23.073Z,5.47
2022-09-28T14:19:20.224Z,1.45
2022-09-28T14:22:25.177Z,5.82
2022-09-28T14:25:23.588Z,4.93
2022-09-28T14:28:34.883Z,3.78
2022-09-28T14:31:28.425Z,2.20
2022-09-28T14:34:36.437Z,4.55
2022-09-28T14:37:54.312Z,4.20
2022-09-28T14:41:13.710Z,2.55
2022-09-28T14:44:09.799Z,2.58
2022-09-28T14:47:27.186Z,6.30
2022-09-28T14:50:25.816Z,2.67
2022-09-28T14:53:23.864Z,4.00
2022-09-28T14:56:15.948Z,2.15
2022-09-28T14:59:11.858Z,3.35
2022-09-28T15:02:09.756Z,5.20
2022-09-28T15:05:14.252Z,5.63
2022-09-28T15:08:08.117Z,3.78
2022-09-28T15:11:01.993Z,3.90
2022-09-28T15:14:06.633Z,3.20
2022-09-28T15:16:59.655Z,7.03
2022-09-28T15:20:01.649Z,5.97
2022-09-28T15:22:57.484Z,3.47
2022-09-28T15:25:54.457Z,4.28
2022-09-28T15:28:46.005Z,4.15
2022-09-28T15:31:37.538Z,5.05
2022-09-28T15:34:48.859Z,3.45
2022-09-28T15:37:40.780Z,4.32
2022-09-28T15:40:36.723Z,5.57
2022-09-28T15:43:32.812Z,5.03
2022-09-28T15:46:26.061Z,4.70
2022-09-28T15:49:25.576Z,5.03
2022-09-28T15:52:27.392Z,4.68
2022-09-28T15:55:22.745Z,5.82
2022-09-28T15:58:19.648Z,3.72
2022-09-28T16:01:27.035Z,4.50
2022-09-28T16:04:39.480Z,4.35
2022-09-28T16:07:35.748Z,6.95
2022-09-28T16:10:33.727Z,5.85
2022-09-28T16:13:25.102Z,5.25
2022-09-28T16:16:17.845Z,4.85
2022-09-28T16:19:24.399Z,4.60
2022-09-28T16:22:24.463Z,4.18
2022-09-28T16:25:22.989Z,5.82
2022-09-28T16:28:29.546Z,4.75
2022-09-28T16:31:33.613Z,6.90
2022-09-28T16:34:28.608Z,7.57
2022-09-28T16:37:32.641Z,7.15
2022-09-28T16:40:23.983Z,5.30
2022-09-28T16:43:26.519Z,5.82
2022-09-28T16:46:18.891Z,6.35
2022-09-28T16:49:18.482Z,6.55
2022-09-28T16:52:12.903Z,6.75
2022-09-28T16:55:39.562Z,6.68
2022-09-28T16:58:31.996Z,6.97
2022-09-28T17:01:23.998Z,8.35
2022-09-28T17:04:15.458Z,5.00
2022-09-28T17:07:07.042Z,7.45
2022-09-28T17:09:59.790Z,6.43
2022-09-28T17:12:52.043Z,6.35
2022-09-28T17:15:44.104Z,7.78
2022-09-28T17:18:39.038Z,9.07
2022-09-28T17:21:30.134Z,6.15
2022-09-28T17:24:21.895Z,7.15
2022-09-28T17:27:20.929Z,6.05
2022-09-28T17:30:13.970Z,7.45
2022-09-28T17:33:05.457Z,11.82
2022-09-28T17:36:01.427Z,6.88
2022-09-28T17:38:52.728Z,8.70
2022-09-28T17:41:44.557Z,7.97
2022-09-28T17:44:36.958Z,10.18
2022-09-28T17:47:30.999Z,23.30
2022-09-28T17:50:27.921Z,15.95
2022-09-28T17:53:19.653Z,10.88
2022-09-28T17:56:12.035Z,14.90
2022-09-28T17:59:06.082Z,11.65
2022-09-28T18:02:02.188Z,14.07
2022-09-28T18:04:54.099Z,14.15
2022-09-28T18:07:47.737Z,16.52
2022-09-28T18:10:38.995Z,17.40
2022-09-28T18:13:30.534Z,23.13
2022-09-28T18:16:22.996Z,18.80
2022-09-28T18:19:16.525Z,17.02
2022-09-28T18:22:07.533Z,21.52
2022-09-28T18:24:59.160Z,22.27
2022-09-28T18:27:53.028Z,19.17
2022-09-28T18:30:46.358Z,22.38
2022-09-28T18:33:38.361Z,20.83
2022-09-28T18:36:32.131Z,21.05
2022-09-28T18:39:26.461Z,18.40
2022-09-28T18:42:19.283Z,20.13
2022-09-28T18:45:12.041Z,20.58
2022-09-28T18:48:03.341Z,20.25
2022-09-28T18:50:54.505Z,22.90
2022-09-28T18:53:47.745Z,27.50
2022-09-28T18:56:39.383Z,22.55
2022-09-28T18:59:30.752Z,25.67
2022-09-28T19:02:22.374Z,25.10
2022-09-28T19:05:13.748Z,26.45
2022-09-28T19:08:05.282Z,26.67
2022-09-28T19:11:06.788Z,23.77
2022-09-28T19:13:58.404Z,24.25
2022-09-28T19:16:50.554Z,26.48
2022-09-28T19:19:42.628Z,27.25
2022-09-28T19:22:34.372Z,26.08
2022-09-28T19:25:26.108Z,28.55
2022-09-28T19:28:19.275Z,29.48
2022-09-28T19:31:12.407Z,23.90
2022-09-28T19:34:04.030Z,25.15
2022-09-28T19:36:55.302Z,25.02
2022-09-28T19:39:47.026Z,30.52
2022-09-28T19:42:39.578Z,26.50
2022-09-28T19:45:32.215Z,28.65
2022-09-28T19:48:27.108Z,26.02
2022-09-28T19:51:19.009Z,25.27
2022-09-28T19:54:11.286Z,31.13
2022-09-28T19:57:07.906Z,26.00
2022-09-28T20:00:02.740Z,27.63
2022-09-28T20:02:56.341Z,27.27
2022-09-28T20:05:49.264Z,30.88
2022-09-28T20:08:42.647Z,28.92
2022-09-28T20:11:35.828Z,23.02
2022-09-28T20:14:32.869Z,27.50
2022-09-28T20:17:27.601Z,26.48
2022-09-28T20:20:20.453Z,26.88
2022-09-28T20:23:11.902Z,30.42
2022-09-28T20:26:04.676Z,28.52
2022-09-28T20:28:56.678Z,27.45
2022-09-28T20:31:47.971Z,31.27
2022-09-28T20:34:39.533Z,26.00
2022-09-28T20:37:32.993Z,25.60
2022-09-28T20:40:24.680Z,23.33
2022-09-28T20:43:16.169Z,26.83
2022-09-28T20:46:08.864Z,26.52
2022-09-28T20:49:00.346Z,26.20
2022-09-28T20:51:51.763Z,29.52
2022-09-28T20:54:44.632Z,25.65
2022-09-28T20:57:36.259Z,23.17
2022-09-28T21:00:27.892Z,24.85
2022-09-28T21:03:19.351Z,27.55
2022-09-28T21:06:12.366Z,25.38
2022-09-28T21:09:04.933Z,27.90
2022-09-28T21:11:57.894Z,34.05
2022-09-28T21:14:49.128Z,27.20
2022-09-28T21:17:40.589Z,26.67
2022-09-28T21:20:32.331Z,23.42
2022-09-28T21:23:25.162Z,25.65
2022-09-28T21:26:24.805Z,22.65
2022-09-28T21:29:17.896Z,23.15
2022-09-28T21:32:09.214Z,22.05
2022-09-28T21:35:00.257Z,22.30
2022-09-28T21:37:51.885Z,26.23
2022-09-28T21:40:43.209Z,22.75
2022-09-28T21:43:34.629Z,20.73
2022-09-28T21:46:33.496Z,25.60
2022-09-28T21:49:49.788Z,21.17
2022-09-28T21:52:41.246Z,19.33
2022-09-28T21:55:32.673Z,19.30
2022-09-28T21:58:25.733Z,22.70
2022-09-28T22:01:19.509Z,24.15
2022-09-28T22:04:12.231Z,21.48
2022-09-28T22:07:03.586Z,19.70
2022-09-28T22:09:54.842Z,27.50
2022-09-28T22:12:46.243Z,24.42
2022-09-28T22:15:37.793Z,26.25
2022-09-28T22:18:30.765Z,23.55
2022-09-28T22:21:24.954Z,23.73
2022-09-28T22:24:16.259Z,27.73
2022-09-28T22:27:07.459Z,24.23
2022-09-28T22:29:59.040Z,23.50
2022-09-28T22:32:50.467Z,21.50
2022-09-28T22:35:41.814Z,22.80
2022-09-28T22:38:35.180Z,20.83
2022-09-28T22:41:26.970Z,20.58
2022-09-28T22:44:18.335Z,19.95
2022-09-28T22:47:09.629Z,22.02
2022-09-28T22:50:01.021Z,20.38
2022-09-28T22:52:52.327Z,23.15
2022-09-28T22:55:45.404Z,22.52
2022-09-28T22:58:38.375Z,22.23
2022-09-28T23:01:31.031Z,21.92
2022-09-28T23:04:22.401Z,23.88
2022-09-28T23:07:13.734Z,23.42
2022-09-28T23:10:05.588Z,22.73
2022-09-28T23:12:58.340Z,22.15
2022-09-28T23:15:56.734Z,27.63
2022-09-28T23:18:49.130Z,23.38
2022-09-28T23:21:40.333Z,27.75
2022-09-28T23:24:31.980Z,23.90
2022-09-28T23:27:23.543Z,23.52
2022-09-28T23:30:17.408Z,22.73
2022-09-28T23:33:08.545Z,24.48
2022-09-28T23:36:02.001Z,20.52
2022-09-28T23:38:53.825Z,24.95
2022-09-28T23:41:45.241Z,22.00
2022-09-28T23:44:36.758Z,19.13
2022-09-28T23:47:29.529Z,21.27
2022-09-28T23:50:20.951Z,18.92
2022-09-28T23:53:14.125Z,18.23
2022-09-28T23:56:05.687Z,17.92
2022-09-28T23:58:56.944Z,19.40
